sensor_id;sensor_type;location;lat;lon;timestamp;temperature;humidity
8422;DHT22;4248;48.196;10.924;2024-01-25T00:01:42;8.70;58.70
8422;DHT22;4248;48.196;10.924;2024-01-25T00:04:07;8.60;58.70
8422;DHT22;4248;48.196;10.924;2024-01-25T00:06:33;8.60;58.70
8422;DHT22;4248;48.196;10.924;2024-01-25T00:08:58;8.70;58.80
8422;DHT22;4248;48.196;10.924;2024-01-25T00:11:24;8.70;58.50
8422;DHT22;4248;48.196;10.924;2024-01-25T00:13:50;8.70;58.30
8422;DHT22;4248;48.196;10.924;2024-01-25T00:16:15;8.70;58.10
8422;DHT22;4248;48.196;10.924;2024-01-25T00:18:41;8.70;58.20
8422;DHT22;4248;48.196;10.924;2024-01-25T00:21:06;8.70;58.50
8422;DHT22;4248;48.196;10.924;2024-01-25T00:23:33;8.60;58.40
8422;DHT22;4248;48.196;10.924;2024-01-25T00:25:58;8.60;58.40
8422;DHT22;4248;48.196;10.924;2024-01-25T00:28:25;8.60;58.40
8422;DHT22;4248;48.196;10.924;2024-01-25T00:30:51;8.60;58.30
8422;DHT22;4248;48.196;10.924;2024-01-25T00:33:17;8.50;58.20
8422;DHT22;4248;48.196;10.924;2024-01-25T00:35:43;8.50;58.20
8422;DHT22;4248;48.196;10.924;2024-01-25T00:38:09;8.50;58.10
8422;DHT22;4248;48.196;10.924;2024-01-25T00:40:35;8.50;57.30
8422;DHT22;4248;48.196;10.924;2024-01-25T00:43:00;8.50;57.90
8422;DHT22;4248;48.196;10.924;2024-01-25T00:45:26;8.50;58.00
8422;DHT22;4248;48.196;10.924;2024-01-25T00:47:52;8.60;57.80
8422;DHT22;4248;48.196;10.924;2024-01-25T00:50:19;8.40;57.70
8422;DHT22;4248;48.196;10.924;2024-01-25T00:52:47;8.40;57.70
8422;DHT22;4248;48.196;10.924;2024-01-25T00:55:14;8.40;57.80
8422;DHT22;4248;48.196;10.924;2024-01-25T00:57:40;8.40;58.00
8422;DHT22;4248;48.196;10.924;2024-01-25T01:00:06;8.40;58.00
8422;DHT22;4248;48.196;10.924;2024-01-25T01:02:36;8.30;58.00
8422;DHT22;4248;48.196;10.924;2024-01-25T01:05:04;8.30;57.90
8422;DHT22;4248;48.196;10.924;2024-01-25T01:07:30;8.40;58.00
8422;DHT22;4248;48.196;10.924;2024-01-25T01:09:56;8.30;59.00
8422;DHT22;4248;48.196;10.924;2024-01-25T01:12:22;8.30;58.00
8422;DHT22;4248;48.196;10.924;2024-01-25T01:14:47;8.40;57.90
8422;DHT22;4248;48.196;10.924;2024-01-25T01:17:13;8.40;57.70
8422;DHT22;4248;48.196;10.924;2024-01-25T01:19:39;8.40;57.90
8422;DHT22;4248;48.196;10.924;2024-01-25T01:22:05;8.40;57.70
8422;DHT22;4248;48.196;10.924;2024-01-25T01:24:30;8.50;57.60
8422;DHT22;4248;48.196;10.924;2024-01-25T01:26:56;8.50;57.30
8422;DHT22;4248;48.196;10.924;2024-01-25T01:29:21;8.60;57.00
8422;DHT22;4248;48.196;10.924;2024-01-25T01:31:47;8.50;56.80
8422;DHT22;4248;48.196;10.924;2024-01-25T01:34:12;8.50;56.90
8422;DHT22;4248;48.196;10.924;2024-01-25T01:36:39;8.60;56.70
8422;DHT22;4248;48.196;10.924;2024-01-25T01:39:04;8.60;56.70
8422;DHT22;4248;48.196;10.924;2024-01-25T01:41:31;8.50;56.60
8422;DHT22;4248;48.196;10.924;2024-01-25T01:43:57;8.60;56.60
8422;DHT22;4248;48.196;10.924;2024-01-25T01:46:37;8.50;56.70
8422;DHT22;4248;48.196;10.924;2024-01-25T01:49:07;8.50;57.00
8422;DHT22;4248;48.196;10.924;2024-01-25T01:51:34;8.50;57.30
8422;DHT22;4248;48.196;10.924;2024-01-25T01:54:01;8.50;57.10
8422;DHT22;4248;48.196;10.924;2024-01-25T01:56:28;8.60;56.80
8422;DHT22;4248;48.196;10.924;2024-01-25T01:58:57;8.60;56.60
8422;DHT22;4248;48.196;10.924;2024-01-25T02:01:24;8.60;56.40
8422;DHT22;4248;48.196;10.924;2024-01-25T02:03:50;8.60;56.60
8422;DHT22;4248;48.196;10.924;2024-01-25T02:06:15;8.60;56.80
8422;DHT22;4248;48.196;10.924;2024-01-25T02:08:41;8.60;56.90
8422;DHT22;4248;48.196;10.924;2024-01-25T02:11:06;8.60;57.10
8422;DHT22;4248;48.196;10.924;2024-01-25T02:13:34;8.60;57.10
8422;DHT22;4248;48.196;10.924;2024-01-25T02:16:00;8.50;57.00
8422;DHT22;4248;48.196;10.924;2024-01-25T02:18:26;8.60;57.00
8422;DHT22;4248;48.196;10.924;2024-01-25T02:20:52;8.60;56.90
8422;DHT22;4248;48.196;10.924;2024-01-25T02:23:17;8.60;57.00
8422;DHT22;4248;48.196;10.924;2024-01-25T02:25:43;8.60;57.20
8422;DHT22;4248;48.196;10.924;2024-01-25T02:28:08;8.50;57.60
8422;DHT22;4248;48.196;10.924;2024-01-25T02:30:34;8.50;58.10
8422;DHT22;4248;48.196;10.924;2024-01-25T02:32:59;8.40;58.60
8422;DHT22;4248;48.196;10.924;2024-01-25T02:35:25;8.50;59.00
8422;DHT22;4248;48.196;10.924;2024-01-25T02:37:50;8.40;59.10
8422;DHT22;4248;48.196;10.924;2024-01-25T02:40:16;8.40;59.60
8422;DHT22;4248;48.196;10.924;2024-01-25T02:42:42;8.40;59.60
8422;DHT22;4248;48.196;10.924;2024-01-25T02:45:08;8.40;59.80
8422;DHT22;4248;48.196;10.924;2024-01-25T02:47:33;8.40;59.40
8422;DHT22;4248;48.196;10.924;2024-01-25T02:49:59;8.50;59.10
8422;DHT22;4248;48.196;10.924;2024-01-25T02:52:24;8.50;58.60
8422;DHT22;4248;48.196;10.924;2024-01-25T02:54:50;8.50;58.80
8422;DHT22;4248;48.196;10.924;2024-01-25T02:57:15;8.50;58.80
8422;DHT22;4248;48.196;10.924;2024-01-25T02:59:41;8.50;58.70
8422;DHT22;4248;48.196;10.924;2024-01-25T03:02:07;8.50;58.70
8422;DHT22;4248;48.196;10.924;2024-01-25T03:04:32;8.50;59.00
8422;DHT22;4248;48.196;10.924;2024-01-25T03:06:58;8.50;59.00
8422;DHT22;4248;48.196;10.924;2024-01-25T03:09:23;8.50;59.00
8422;DHT22;4248;48.196;10.924;2024-01-25T03:11:49;8.60;59.10
8422;DHT22;4248;48.196;10.924;2024-01-25T03:14:15;8.50;58.80
8422;DHT22;4248;48.196;10.924;2024-01-25T03:16:41;8.50;58.90
8422;DHT22;4248;48.196;10.924;2024-01-25T03:19:06;8.50;58.80
8422;DHT22;4248;48.196;10.924;2024-01-25T03:21:32;8.50;59.00
8422;DHT22;4248;48.196;10.924;2024-01-25T03:23:57;8.50;59.10
8422;DHT22;4248;48.196;10.924;2024-01-25T03:26:23;8.40;59.40
8422;DHT22;4248;48.196;10.924;2024-01-25T03:28:48;8.40;59.50
8422;DHT22;4248;48.196;10.924;2024-01-25T03:31:14;8.50;59.40
8422;DHT22;4248;48.196;10.924;2024-01-25T03:33:39;8.50;59.40
8422;DHT22;4248;48.196;10.924;2024-01-25T03:36:05;8.40;59.10
8422;DHT22;4248;48.196;10.924;2024-01-25T03:38:32;8.30;61.10
8422;DHT22;4248;48.196;10.924;2024-01-25T03:40:57;8.30;60.60
8422;DHT22;4248;48.196;10.924;2024-01-25T03:43:25;8.20;61.10
8422;DHT22;4248;48.196;10.924;2024-01-25T03:45:50;8.20;61.30
8422;DHT22;4248;48.196;10.924;2024-01-25T03:48:16;8.20;62.00
8422;DHT22;4248;48.196;10.924;2024-01-25T03:50:42;8.10;62.90
8422;DHT22;4248;48.196;10.924;2024-01-25T03:53:07;8.00;63.70
8422;DHT22;4248;48.196;10.924;2024-01-25T03:55:33;8.10;63.80
8422;DHT22;4248;48.196;10.924;2024-01-25T03:57:59;8.00;63.70
8422;DHT22;4248;48.196;10.924;2024-01-25T04:00:24;8.00;64.30
8422;DHT22;4248;48.196;10.924;2024-01-25T04:02:50;8.00;65.10
8422;DHT22;4248;48.196;10.924;2024-01-25T04:05:16;7.90;65.50
8422;DHT22;4248;48.196;10.924;2024-01-25T04:07:41;7.90;66.00
8422;DHT22;4248;48.196;10.924;2024-01-25T04:10:07;7.90;66.40
8422;DHT22;4248;48.196;10.924;2024-01-25T04:12:33;7.90;67.00
8422;DHT22;4248;48.196;10.924;2024-01-25T04:14:58;7.80;67.40
8422;DHT22;4248;48.196;10.924;2024-01-25T04:17:26;7.80;67.60
8422;DHT22;4248;48.196;10.924;2024-01-25T04:19:52;7.90;67.30
8422;DHT22;4248;48.196;10.924;2024-01-25T04:22:17;7.90;67.40
8422;DHT22;4248;48.196;10.924;2024-01-25T04:24:43;7.90;67.10
8422;DHT22;4248;48.196;10.924;2024-01-25T04:27:10;7.90;67.00
8422;DHT22;4248;48.196;10.924;2024-01-25T04:29:42;8.00;66.70
8422;DHT22;4248;48.196;10.924;2024-01-25T04:32:08;8.00;66.10
8422;DHT22;4248;48.196;10.924;2024-01-25T04:34:35;8.10;65.70
8422;DHT22;4248;48.196;10.924;2024-01-25T04:37:01;8.10;65.10
8422;DHT22;4248;48.196;10.924;2024-01-25T04:39:27;8.20;64.80
8422;DHT22;4248;48.196;10.924;2024-01-25T04:41:52;8.20;64.50
8422;DHT22;4248;48.196;10.924;2024-01-25T04:44:18;8.20;64.40
8422;DHT22;4248;48.196;10.924;2024-01-25T04:46:44;8.10;64.70
8422;DHT22;4248;48.196;10.924;2024-01-25T04:49:09;8.10;64.70
8422;DHT22;4248;48.196;10.924;2024-01-25T04:51:35;8.10;64.80
8422;DHT22;4248;48.196;10.924;2024-01-25T04:54:01;8.00;65.30
8422;DHT22;4248;48.196;10.924;2024-01-25T04:56:26;7.90;65.90
8422;DHT22;4248;48.196;10.924;2024-01-25T04:58:52;7.90;66.10
8422;DHT22;4248;48.196;10.924;2024-01-25T05:01:17;7.90;66.10
8422;DHT22;4248;48.196;10.924;2024-01-25T05:03:43;7.90;66.20
8422;DHT22;4248;48.196;10.924;2024-01-25T05:06:09;7.90;66.20
8422;DHT22;4248;48.196;10.924;2024-01-25T05:08:34;7.90;66.40
8422;DHT22;4248;48.196;10.924;2024-01-25T05:11:00;7.90;66.30
8422;DHT22;4248;48.196;10.924;2024-01-25T05:13:25;7.90;66.30
8422;DHT22;4248;48.196;10.924;2024-01-25T05:15:51;7.90;66.20
8422;DHT22;4248;48.196;10.924;2024-01-25T05:18:16;7.80;66.20
8422;DHT22;4248;48.196;10.924;2024-01-25T05:20:42;7.80;66.30
8422;DHT22;4248;48.196;10.924;2024-01-25T05:23:08;7.80;66.40
8422;DHT22;4248;48.196;10.924;2024-01-25T05:25:33;7.80;66.70
8422;DHT22;4248;48.196;10.924;2024-01-25T05:27:59;7.80;66.90
8422;DHT22;4248;48.196;10.924;2024-01-25T05:30:25;7.80;67.10
8422;DHT22;4248;48.196;10.924;2024-01-25T05:32:51;7.70;67.40
8422;DHT22;4248;48.196;10.924;2024-01-25T05:35:18;7.80;67.70
8422;DHT22;4248;48.196;10.924;2024-01-25T05:37:44;7.70;67.80
8422;DHT22;4248;48.196;10.924;2024-01-25T05:40:10;7.70;67.90
8422;DHT22;4248;48.196;10.924;2024-01-25T05:42:36;7.70;68.00
8422;DHT22;4248;48.196;10.924;2024-01-25T05:45:02;7.70;68.10
8422;DHT22;4248;48.196;10.924;2024-01-25T05:47:29;7.70;68.10
8422;DHT22;4248;48.196;10.924;2024-01-25T05:49:54;7.70;68.20
8422;DHT22;4248;48.196;10.924;2024-01-25T05:52:20;7.70;68.20
8422;DHT22;4248;48.196;10.924;2024-01-25T05:54:47;7.70;68.60
8422;DHT22;4248;48.196;10.924;2024-01-25T05:57:12;7.70;68.90
8422;DHT22;4248;48.196;10.924;2024-01-25T05:59:38;7.60;68.90
8422;DHT22;4248;48.196;10.924;2024-01-25T06:02:04;7.70;69.10
8422;DHT22;4248;48.196;10.924;2024-01-25T06:04:30;7.70;68.90
8422;DHT22;4248;48.196;10.924;2024-01-25T06:06:55;7.70;68.80
8422;DHT22;4248;48.196;10.924;2024-01-25T06:09:21;7.70;68.90
8422;DHT22;4248;48.196;10.924;2024-01-25T06:11:46;7.60;68.90
8422;DHT22;4248;48.196;10.924;2024-01-25T06:14:12;7.60;68.80
8422;DHT22;4248;48.196;10.924;2024-01-25T06:16:37;7.70;68.80
8422;DHT22;4248;48.196;10.924;2024-01-25T06:19:03;7.60;68.80
8422;DHT22;4248;48.196;10.924;2024-01-25T06:21:29;7.40;69.30
8422;DHT22;4248;48.196;10.924;2024-01-25T06:23:55;7.40;69.70
8422;DHT22;4248;48.196;10.924;2024-01-25T06:26:20;7.30;70.00
8422;DHT22;4248;48.196;10.924;2024-01-25T06:28:46;7.30;70.00
8422;DHT22;4248;48.196;10.924;2024-01-25T06:31:11;7.30;69.80
8422;DHT22;4248;48.196;10.924;2024-01-25T06:33:37;7.40;69.60
8422;DHT22;4248;48.196;10.924;2024-01-25T06:36:02;7.30;69.60
8422;DHT22;4248;48.196;10.924;2024-01-25T06:38:28;7.40;69.50
8422;DHT22;4248;48.196;10.924;2024-01-25T06:40:53;7.40;69.10
8422;DHT22;4248;48.196;10.924;2024-01-25T06:43:19;7.50;69.10
8422;DHT22;4248;48.196;10.924;2024-01-25T06:45:45;7.50;68.80
8422;DHT22;4248;48.196;10.924;2024-01-25T06:48:11;7.50;68.70
8422;DHT22;4248;48.196;10.924;2024-01-25T06:50:36;7.50;68.70
8422;DHT22;4248;48.196;10.924;2024-01-25T06:53:02;7.60;68.50
8422;DHT22;4248;48.196;10.924;2024-01-25T06:55:28;7.60;68.00
8422;DHT22;4248;48.196;10.924;2024-01-25T06:57:53;7.70;67.90
8422;DHT22;4248;48.196;10.924;2024-01-25T07:00:19;7.70;67.50
8422;DHT22;4248;48.196;10.924;2024-01-25T07:02:46;7.80;67.20
8422;DHT22;4248;48.196;10.924;2024-01-25T07:05:12;7.80;67.10
8422;DHT22;4248;48.196;10.924;2024-01-25T07:07:37;7.80;67.10
8422;DHT22;4248;48.196;10.924;2024-01-25T07:10:04;7.80;67.20
8422;DHT22;4248;48.196;10.924;2024-01-25T07:12:30;7.80;67.00
8422;DHT22;4248;48.196;10.924;2024-01-25T07:14:56;7.80;67.00
8422;DHT22;4248;48.196;10.924;2024-01-25T07:17:21;7.80;68.20
8422;DHT22;4248;48.196;10.924;2024-01-25T07:19:47;7.70;67.00
8422;DHT22;4248;48.196;10.924;2024-01-25T07:22:12;7.70;67.40
8422;DHT22;4248;48.196;10.924;2024-01-25T07:24:40;7.50;67.70
8422;DHT22;4248;48.196;10.924;2024-01-25T07:27:06;7.40;68.20
8422;DHT22;4248;48.196;10.924;2024-01-25T07:29:31;7.40;68.40
8422;DHT22;4248;48.196;10.924;2024-01-25T07:31:57;7.30;69.00
8422;DHT22;4248;48.196;10.924;2024-01-25T07:34:22;7.20;69.50
8422;DHT22;4248;48.196;10.924;2024-01-25T07:36:48;7.20;70.10
8422;DHT22;4248;48.196;10.924;2024-01-25T07:39:13;7.10;70.50
8422;DHT22;4248;48.196;10.924;2024-01-25T07:41:39;7.00;71.00
8422;DHT22;4248;48.196;10.924;2024-01-25T07:44:05;7.00;71.10
8422;DHT22;4248;48.196;10.924;2024-01-25T07:46:31;7.00;71.10
8422;DHT22;4248;48.196;10.924;2024-01-25T07:48:57;6.90;70.80
8422;DHT22;4248;48.196;10.924;2024-01-25T07:51:22;6.90;70.70
8422;DHT22;4248;48.196;10.924;2024-01-25T07:53:48;7.00;70.60
8422;DHT22;4248;48.196;10.924;2024-01-25T07:56:13;7.00;70.70
8422;DHT22;4248;48.196;10.924;2024-01-25T07:58:40;7.10;70.70
8422;DHT22;4248;48.196;10.924;2024-01-25T08:01:05;7.20;70.10
8422;DHT22;4248;48.196;10.924;2024-01-25T08:03:32;7.40;69.60
8422;DHT22;4248;48.196;10.924;2024-01-25T08:06:01;7.60;69.10
8422;DHT22;4248;48.196;10.924;2024-01-25T08:08:28;7.80;68.30
8422;DHT22;4248;48.196;10.924;2024-01-25T08:10:53;8.00;67.80
8422;DHT22;4248;48.196;10.924;2024-01-25T08:13:19;8.10;67.60
8422;DHT22;4248;48.196;10.924;2024-01-25T08:15:45;8.20;67.30
8422;DHT22;4248;48.196;10.924;2024-01-25T08:18:11;8.10;67.20
8422;DHT22;4248;48.196;10.924;2024-01-25T08:20:39;8.10;67.20
8422;DHT22;4248;48.196;10.924;2024-01-25T08:23:05;8.20;67.30
8422;DHT22;4248;48.196;10.924;2024-01-25T08:25:33;8.30;67.20
8422;DHT22;4248;48.196;10.924;2024-01-25T08:27:58;8.30;67.10
8422;DHT22;4248;48.196;10.924;2024-01-25T08:30:24;8.20;67.10
8422;DHT22;4248;48.196;10.924;2024-01-25T08:32:49;8.10;67.30
8422;DHT22;4248;48.196;10.924;2024-01-25T08:35:17;7.90;67.80
8422;DHT22;4248;48.196;10.924;2024-01-25T08:37:42;7.90;68.30
8422;DHT22;4248;48.196;10.924;2024-01-25T08:40:09;7.90;68.00
8422;DHT22;4248;48.196;10.924;2024-01-25T08:42:35;8.00;67.90
8422;DHT22;4248;48.196;10.924;2024-01-25T08:45:01;8.10;67.50
8422;DHT22;4248;48.196;10.924;2024-01-25T08:47:26;8.20;66.50
8422;DHT22;4248;48.196;10.924;2024-01-25T08:49:52;8.20;66.70
8422;DHT22;4248;48.196;10.924;2024-01-25T08:52:17;8.20;66.20
8422;DHT22;4248;48.196;10.924;2024-01-25T08:54:43;8.20;66.60
8422;DHT22;4248;48.196;10.924;2024-01-25T08:57:09;8.30;66.20
8422;DHT22;4248;48.196;10.924;2024-01-25T08:59:35;8.40;65.80
8422;DHT22;4248;48.196;10.924;2024-01-25T09:02:06;8.50;65.10
8422;DHT22;4248;48.196;10.924;2024-01-25T09:04:32;8.70;64.30
8422;DHT22;4248;48.196;10.924;2024-01-25T09:06:58;8.80;64.00
8422;DHT22;4248;48.196;10.924;2024-01-25T09:09:24;8.90;63.50
8422;DHT22;4248;48.196;10.924;2024-01-25T09:11:49;9.00;63.00
8422;DHT22;4248;48.196;10.924;2024-01-25T09:14:15;9.00;62.90
8422;DHT22;4248;48.196;10.924;2024-01-25T09:16:40;9.00;63.00
8422;DHT22;4248;48.196;10.924;2024-01-25T09:19:06;9.00;63.10
8422;DHT22;4248;48.196;10.924;2024-01-25T09:21:31;9.20;63.20
8422;DHT22;4248;48.196;10.924;2024-01-25T09:23:57;9.40;63.20
8422;DHT22;4248;48.196;10.924;2024-01-25T09:26:23;9.50;62.60
8422;DHT22;4248;48.196;10.924;2024-01-25T09:28:48;9.60;62.30
8422;DHT22;4248;48.196;10.924;2024-01-25T09:31:14;9.70;61.80
8422;DHT22;4248;48.196;10.924;2024-01-25T09:33:39;9.70;61.60
8422;DHT22;4248;48.196;10.924;2024-01-25T09:36:05;9.70;61.00
8422;DHT22;4248;48.196;10.924;2024-01-25T09:38:31;9.80;60.70
8422;DHT22;4248;48.196;10.924;2024-01-25T09:40:56;9.80;60.00
8422;DHT22;4248;48.196;10.924;2024-01-25T09:43:22;9.80;59.60
8422;DHT22;4248;48.196;10.924;2024-01-25T09:45:53;9.80;56.10
8422;DHT22;4248;48.196;10.924;2024-01-25T09:48:23;9.50;51.50
8422;DHT22;4248;48.196;10.924;2024-01-25T09:50:48;9.50;50.90
8422;DHT22;4248;48.196;10.924;2024-01-25T09:53:23;9.60;50.50
8422;DHT22;4248;48.196;10.924;2024-01-25T09:56:00;9.60;49.10
8422;DHT22;4248;48.196;10.924;2024-01-25T09:58:38;9.80;47.70
8422;DHT22;4248;48.196;10.924;2024-01-25T10:01:11;9.90;46.60
8422;DHT22;4248;48.196;10.924;2024-01-25T10:03:47;9.80;46.00
8422;DHT22;4248;48.196;10.924;2024-01-25T10:06:13;9.50;42.70
8422;DHT22;4248;48.196;10.924;2024-01-25T10:08:39;9.40;43.60
8422;DHT22;4248;48.196;10.924;2024-01-25T10:11:05;9.50;43.90
8422;DHT22;4248;48.196;10.924;2024-01-25T10:13:31;9.40;43.60
8422;DHT22;4248;48.196;10.924;2024-01-25T10:15:57;9.40;44.10
8422;DHT22;4248;48.196;10.924;2024-01-25T10:18:24;9.40;43.80
8422;DHT22;4248;48.196;10.924;2024-01-25T10:20:52;9.30;42.90
8422;DHT22;4248;48.196;10.924;2024-01-25T10:23:18;9.30;42.60
8422;DHT22;4248;48.196;10.924;2024-01-25T10:25:44;9.30;43.30
8422;DHT22;4248;48.196;10.924;2024-01-25T10:28:09;9.50;42.70
8422;DHT22;4248;48.196;10.924;2024-01-25T10:30:36;9.60;42.40
8422;DHT22;4248;48.196;10.924;2024-01-25T10:33:02;9.80;41.70
8422;DHT22;4248;48.196;10.924;2024-01-25T10:35:30;10.00;40.10
8422;DHT22;4248;48.196;10.924;2024-01-25T10:37:56;9.80;39.20
8422;DHT22;4248;48.196;10.924;2024-01-25T10:40:22;9.70;39.20
8422;DHT22;4248;48.196;10.924;2024-01-25T10:42:48;9.50;39.20
8422;DHT22;4248;48.196;10.924;2024-01-25T10:45:14;9.30;39.90
8422;DHT22;4248;48.196;10.924;2024-01-25T10:47:40;9.20;40.50
8422;DHT22;4248;48.196;10.924;2024-01-25T10:50:13;9.10;41.30
8422;DHT22;4248;48.196;10.924;2024-01-25T10:52:40;9.00;41.70
8422;DHT22;4248;48.196;10.924;2024-01-25T10:55:07;9.10;41.70
8422;DHT22;4248;48.196;10.924;2024-01-25T10:57:37;9.20;41.60
8422;DHT22;4248;48.196;10.924;2024-01-25T11:00:06;9.40;41.30
8422;DHT22;4248;48.196;10.924;2024-01-25T11:02:37;9.70;42.10
8422;DHT22;4248;48.196;10.924;2024-01-25T11:05:12;9.80;40.10
8422;DHT22;4248;48.196;10.924;2024-01-25T11:07:49;10.00;38.40
8422;DHT22;4248;48.196;10.924;2024-01-25T11:10:21;10.10;38.50
8422;DHT22;4248;48.196;10.924;2024-01-25T11:13:04;10.00;38.40
8422;DHT22;4248;48.196;10.924;2024-01-25T11:15:35;10.00;38.40
8422;DHT22;4248;48.196;10.924;2024-01-25T11:18:07;9.90;39.90
8422;DHT22;4248;48.196;10.924;2024-01-25T11:20:34;9.70;40.00
8422;DHT22;4248;48.196;10.924;2024-01-25T11:23:07;9.70;40.50
8422;DHT22;4248;48.196;10.924;2024-01-25T11:25:36;9.70;40.20
8422;DHT22;4248;48.196;10.924;2024-01-25T11:28:03;9.90;39.30
8422;DHT22;4248;48.196;10.924;2024-01-25T11:30:33;9.90;37.90
8422;DHT22;4248;48.196;10.924;2024-01-25T11:32:59;9.80;38.40
8422;DHT22;4248;48.196;10.924;2024-01-25T11:35:25;9.70;36.20
8422;DHT22;4248;48.196;10.924;2024-01-25T11:37:51;9.50;36.60
8422;DHT22;4248;48.196;10.924;2024-01-25T11:40:17;9.50;36.90
8422;DHT22;4248;48.196;10.924;2024-01-25T11:42:45;9.50;37.20
8422;DHT22;4248;48.196;10.924;2024-01-25T11:45:14;9.70;37.40
8422;DHT22;4248;48.196;10.924;2024-01-25T11:47:41;9.90;37.10
8422;DHT22;4248;48.196;10.924;2024-01-25T11:50:08;9.90;36.60
8422;DHT22;4248;48.196;10.924;2024-01-25T11:52:34;10.10;36.00
8422;DHT22;4248;48.196;10.924;2024-01-25T11:55:05;10.20;35.50
8422;DHT22;4248;48.196;10.924;2024-01-25T11:57:32;10.10;34.70
8422;DHT22;4248;48.196;10.924;2024-01-25T11:59:59;10.00;35.10
8422;DHT22;4248;48.196;10.924;2024-01-25T12:02:25;10.00;35.40
8422;DHT22;4248;48.196;10.924;2024-01-25T12:04:52;10.00;35.60
8422;DHT22;4248;48.196;10.924;2024-01-25T12:07:20;10.10;35.70
8422;DHT22;4248;48.196;10.924;2024-01-25T12:10:01;10.30;35.30
8422;DHT22;4248;48.196;10.924;2024-01-25T12:12:27;10.60;34.40
8422;DHT22;4248;48.196;10.924;2024-01-25T12:15:04;10.80;32.90
8422;DHT22;4248;48.196;10.924;2024-01-25T12:17:31;11.00;31.10
8422;DHT22;4248;48.196;10.924;2024-01-25T12:19:57;11.00;29.80
8422;DHT22;4248;48.196;10.924;2024-01-25T12:22:32;10.80;29.90
8422;DHT22;4248;48.196;10.924;2024-01-25T12:24:58;10.70;29.60
8422;DHT22;4248;48.196;10.924;2024-01-25T12:27:25;10.60;30.50
8422;DHT22;4248;48.196;10.924;2024-01-25T12:29:52;10.70;30.50
8422;DHT22;4248;48.196;10.924;2024-01-25T12:32:21;10.60;30.80
8422;DHT22;4248;48.196;10.924;2024-01-25T12:34:57;10.70;30.90
8422;DHT22;4248;48.196;10.924;2024-01-25T12:37:23;10.80;31.10
8422;DHT22;4248;48.196;10.924;2024-01-25T12:39:53;10.70;30.90
8422;DHT22;4248;48.196;10.924;2024-01-25T12:42:20;10.70;30.90
8422;DHT22;4248;48.196;10.924;2024-01-25T12:44:46;10.80;30.40
8422;DHT22;4248;48.196;10.924;2024-01-25T12:47:12;10.90;31.10
8422;DHT22;4248;48.196;10.924;2024-01-25T12:49:44;11.10;30.00
8422;DHT22;4248;48.196;10.924;2024-01-25T12:52:11;11.10;29.60
8422;DHT22;4248;48.196;10.924;2024-01-25T12:54:37;11.30;29.50
8422;DHT22;4248;48.196;10.924;2024-01-25T12:57:04;11.10;29.00
8422;DHT22;4248;48.196;10.924;2024-01-25T12:59:30;11.20;29.30
8422;DHT22;4248;48.196;10.924;2024-01-25T13:01:55;11.30;28.60
8422;DHT22;4248;48.196;10.924;2024-01-25T13:04:21;11.10;29.00
8422;DHT22;4248;48.196;10.924;2024-01-25T13:06:48;11.10;28.70
8422;DHT22;4248;48.196;10.924;2024-01-25T13:09:14;10.90;27.10
8422;DHT22;4248;48.196;10.924;2024-01-25T13:11:41;10.70;27.50
8422;DHT22;4248;48.196;10.924;2024-01-25T13:14:07;10.70;28.20
8422;DHT22;4248;48.196;10.924;2024-01-25T13:16:32;10.80;28.00
8422;DHT22;4248;48.196;10.924;2024-01-25T13:18:58;10.80;27.10
8422;DHT22;4248;48.196;10.924;2024-01-25T13:21:24;10.90;26.70
8422;DHT22;4248;48.196;10.924;2024-01-25T13:23:49;10.90;26.90
8422;DHT22;4248;48.196;10.924;2024-01-25T13:26:15;10.80;27.30
8422;DHT22;4248;48.196;10.924;2024-01-25T13:28:40;10.70;26.70
8422;DHT22;4248;48.196;10.924;2024-01-25T13:31:06;10.30;28.00
8422;DHT22;4248;48.196;10.924;2024-01-25T13:33:31;10.20;28.80
8422;DHT22;4248;48.196;10.924;2024-01-25T13:35:57;10.20;29.50
8422;DHT22;4248;48.196;10.924;2024-01-25T13:38:22;10.20;29.60
8422;DHT22;4248;48.196;10.924;2024-01-25T13:40:50;10.10;29.60
8422;DHT22;4248;48.196;10.924;2024-01-25T13:43:15;10.20;29.90
8422;DHT22;4248;48.196;10.924;2024-01-25T13:45:41;10.30;29.90
8422;DHT22;4248;48.196;10.924;2024-01-25T13:48:07;10.40;29.80
8422;DHT22;4248;48.196;10.924;2024-01-25T13:50:32;10.60;29.60
8422;DHT22;4248;48.196;10.924;2024-01-25T13:52:58;10.60;29.60
8422;DHT22;4248;48.196;10.924;2024-01-25T13:55:24;10.60;29.30
8422;DHT22;4248;48.196;10.924;2024-01-25T13:57:49;10.60;29.40
8422;DHT22;4248;48.196;10.924;2024-01-25T14:00:15;10.50;29.30
8422;DHT22;4248;48.196;10.924;2024-01-25T14:02:41;10.40;29.60
8422;DHT22;4248;48.196;10.924;2024-01-25T14:05:11;10.40;29.80
8422;DHT22;4248;48.196;10.924;2024-01-25T14:07:37;10.30;30.60
8422;DHT22;4248;48.196;10.924;2024-01-25T14:10:02;10.30;29.90
8422;DHT22;4248;48.196;10.924;2024-01-25T14:12:28;10.30;30.20
8422;DHT22;4248;48.196;10.924;2024-01-25T14:14:54;10.30;30.40
8422;DHT22;4248;48.196;10.924;2024-01-25T14:17:19;10.50;30.50
8422;DHT22;4248;48.196;10.924;2024-01-25T14:19:45;10.30;30.20
8422;DHT22;4248;48.196;10.924;2024-01-25T14:22:10;10.30;29.80
8422;DHT22;4248;48.196;10.924;2024-01-25T14:24:36;10.30;29.90
8422;DHT22;4248;48.196;10.924;2024-01-25T14:27:02;10.20;30.00
8422;DHT22;4248;48.196;10.924;2024-01-25T14:29:28;10.20;30.40
8422;DHT22;4248;48.196;10.924;2024-01-25T14:31:57;10.20;30.50
8422;DHT22;4248;48.196;10.924;2024-01-25T14:34:23;10.20;30.40
8422;DHT22;4248;48.196;10.924;2024-01-25T14:36:48;10.10;30.30
8422;DHT22;4248;48.196;10.924;2024-01-25T14:39:15;10.10;30.20
8422;DHT22;4248;48.196;10.924;2024-01-25T14:41:43;10.00;30.00
8422;DHT22;4248;48.196;10.924;2024-01-25T14:44:09;10.10;30.00
8422;DHT22;4248;48.196;10.924;2024-01-25T14:46:35;10.20;30.00
8422;DHT22;4248;48.196;10.924;2024-01-25T14:49:00;10.10;30.00
8422;DHT22;4248;48.196;10.924;2024-01-25T14:51:26;10.20;30.20
8422;DHT22;4248;48.196;10.924;2024-01-25T14:53:51;10.20;30.30
8422;DHT22;4248;48.196;10.924;2024-01-25T14:56:17;10.20;30.30
8422;DHT22;4248;48.196;10.924;2024-01-25T14:58:43;10.30;30.50
8422;DHT22;4248;48.196;10.924;2024-01-25T15:01:15;10.20;30.80
8422;DHT22;4248;48.196;10.924;2024-01-25T15:03:45;10.20;31.00
8422;DHT22;4248;48.196;10.924;2024-01-25T15:06:11;10.20;31.10
8422;DHT22;4248;48.196;10.924;2024-01-25T15:08:37;10.20;30.80
8422;DHT22;4248;48.196;10.924;2024-01-25T15:11:03;10.10;30.80
8422;DHT22;4248;48.196;10.924;2024-01-25T15:13:28;10.00;31.20
8422;DHT22;4248;48.196;10.924;2024-01-25T15:15:54;9.90;32.40
8422;DHT22;4248;48.196;10.924;2024-01-25T15:18:19;10.00;31.60
8422;DHT22;4248;48.196;10.924;2024-01-25T15:20:46;10.00;31.60
8422;DHT22;4248;48.196;10.924;2024-01-25T15:23:12;10.00;31.60
8422;DHT22;4248;48.196;10.924;2024-01-25T15:25:37;9.90;32.60
8422;DHT22;4248;48.196;10.924;2024-01-25T15:28:03;9.90;32.50
8422;DHT22;4248;48.196;10.924;2024-01-25T15:30:29;9.80;32.70
8422;DHT22;4248;48.196;10.924;2024-01-25T15:32:54;9.80;33.00
8422;DHT22;4248;48.196;10.924;2024-01-25T15:35:20;9.80;33.10
8422;DHT22;4248;48.196;10.924;2024-01-25T15:37:45;9.80;33.10
8422;DHT22;4248;48.196;10.924;2024-01-25T15:40:11;9.70;32.90
8422;DHT22;4248;48.196;10.924;2024-01-25T15:42:39;9.70;33.10
8422;DHT22;4248;48.196;10.924;2024-01-25T15:45:05;9.70;33.10
8422;DHT22;4248;48.196;10.924;2024-01-25T15:47:32;9.60;33.00
8422;DHT22;4248;48.196;10.924;2024-01-25T15:49:58;9.60;33.30
8422;DHT22;4248;48.196;10.924;2024-01-25T15:52:23;9.50;33.40